Flight Number: EUR1096 Duration: 3:30
Departure: Heraklion (Crete) (LGIR) at 18:30 Distance: 1449 Nm
Arrival: Gatwick Airport (EGKK) at 22:00 Equipment: MD-81

Weather Information
Heraklion Airport , Greece (LGIR) 35-20N 025-11E 39M Jan 21, 2019 - 06:50 AM EST / 2019.01.21 1150 UTC
Wind: from the NW (310 degrees) at 16 MPH (14 KT):0
Visibility: greater than 7 mile(s):0
Sky conditions: partly cloudy Temperature: 60 F (16 C) Dew Point: 51 F (11 C) Relative Humidity: 72% Pressure (altimeter): 29.97 in. Hg (1015 hPa)
ob: LGIR 211150Z 31014KT 9999 SCT020 16/11 Q1015 NOSIG cycle: 12
Sunrise: 05:28 Sunset: 15:32 (UTC)

London / Gatwick Airport, United Kingdom (EGKK) 51-09N 000-11W 0M Jan 21, 2019 - 06:50 AM EST / 2019.01.21 1150 UTC
Wind: from the SW (230 degrees) at 3 MPH (3 KT):0
Visibility: 2 mile(s):0
Sky conditions: mostly clear Weather: haze Temperature: 37 F (3 C) Dew Point: 33 F (1 C) Relative Humidity: 86% Pressure (altimeter): 30.21 in. Hg (1023 hPa)
ob: EGKK 211150Z 23003KT 4000 HZ FEW032 03/01 Q1023 cycle: 12
Sunrise: 07:56 Sunset: 16:27 (UTC)

TAF:2019/01/21 12:06 TAF EGKK 211057Z 2112/2218 20006KT 1400 BR FEW001 SCT030 BECMG 2112/2115 9999 NSW PROB40 2112/2113 BKN001 PROB40 TEMPO 2115/2122 6000 TEMPO 2122/2205 6000 -RADZ BKN012 PROB30 TEMPO 2200/2204 19015G25KT 4000 RA BKN007 BECMG 2203/2206 28010KT TEMPO 2213/2218 6000 -SHRA BKN010 PROB30 TEMPO 2213/2218 3000 SHRA -SHRASN BKN005

Previous Pireps for this route
Date Aircraft Flight time Fuel used Landing rate On time
2013-10-27A32104.2327006-181Charter
2015-01-01MD-813.53245290No
2015-03-25MD-8103.4325616-374Yes
(pireps marked green are flown by you)

Route map